Huvudsida
METAR-TAF:

METAR-TAF

Flygplatser :

Bodø flygplats

Bodö, Norge

latitud: 67-16N, longitud: 014-22E, höjd: 1 m

Aktuellt väderrapport

Denna rapport gjordes för 12 minuter sedan, klockan 22:50 UTC
Vind 21 kt från ost
Temperatur -6°C
Fuktighet 58%
Tryck 1011 hPa
Sikt 10 km eller mer
Få moln på en höjd av 5000 ft
lågt snödrev

METAR: ENBO 232250Z 09021KT 9999 DRSN FEW050 M06/M13 Q1011 TEMPO 10025G35KT

Tid: 00:02 (23:02 UTC)

Väderprognos

Prognos gäller från 23 kl. 18 UTC till 24 kl. 18 UTC
Vind 25 kt från ost
Sikt 10 km eller mer
Få moln på en höjd av 3000 ft
lågt snödrev
Temporärt
från 23 kl. 18 UTC till 24 kl. 18 UTC
Vind 25 kt från ost i byarna ända upp till 35 kt

TAF: ENBO 2318/2418 10025KT 9999 DRSN FEW030 TEMPO 2318/2418 10025G35KT

Aktuella väderrapporter och prognoser från 4000 flygplatser (METAR- och TAF-rapporter).

De tillgängliga stationerna syns som gula och röda prickar på kartan.

För musen över prickarna för att se namnen på stationerna.

Klicka sedan för att få väderrapporter och prognoser.

För att ändra kartan: Klicka på de gröna knapparna med ett svart kors på för att zooma in; den gröna knappen med ett streck på för att zooma ut; eller på de gröna pilarna för angränsande kartor.


METAR-TAF: